sensor_id;sensor_type;location;lat;lon;timestamp;pressure;altitude;pressure_sealevel;temperature;humidity
46718;BME280;32448;44.960;-0.698;2023-03-26T00:01:20;101076.41;;;12.63;100.00
46718;BME280;32448;44.960;-0.698;2023-03-26T00:03:49;101092.25;;;12.69;100.00
46718;BME280;32448;44.960;-0.698;2023-03-26T00:06:21;101091.44;;;12.75;100.00
46718;BME280;32448;44.960;-0.698;2023-03-26T00:08:48;101096.78;;;12.83;100.00
46718;BME280;32448;44.960;-0.698;2023-03-26T00:11:16;101091.56;;;12.84;100.00
46718;BME280;32448;44.960;-0.698;2023-03-26T00:13:44;101099.44;;;12.86;100.00
46718;BME280;32448;44.960;-0.698;2023-03-26T00:16:13;101108.31;;;12.95;100.00
46718;BME280;32448;44.960;-0.698;2023-03-26T00:18:41;101107.47;;;12.98;100.00
46718;BME280;32448;44.960;-0.698;2023-03-26T00:21:11;101116.16;;;12.94;100.00
46718;BME280;32448;44.960;-0.698;2023-03-26T00:23:38;101114.44;;;12.96;100.00
46718;BME280;32448;44.960;-0.698;2023-03-26T00:26:06;101132.00;;;13.00;100.00
46718;BME280;32448;44.960;-0.698;2023-03-26T00:28:36;101115.38;;;12.99;100.00
46718;BME280;32448;44.960;-0.698;2023-03-26T00:31:04;101107.44;;;12.96;100.00
46718;BME280;32448;44.960;-0.698;2023-03-26T00:33:31;101097.78;;;12.94;100.00
46718;BME280;32448;44.960;-0.698;2023-03-26T00:35:59;101112.69;;;12.95;100.00
46718;BME280;32448;44.960;-0.698;2023-03-26T00:38:29;101093.53;;;13.03;100.00
46718;BME280;32448;44.960;-0.698;2023-03-26T00:40:58;101082.19;;;13.03;100.00
46718;BME280;32448;44.960;-0.698;2023-03-26T00:43:32;101064.69;;;13.05;100.00
46718;BME280;32448;44.960;-0.698;2023-03-26T00:46:00;101079.44;;;12.95;100.00
46718;BME280;32448;44.960;-0.698;2023-03-26T00:48:27;101074.19;;;12.94;100.00
46718;BME280;32448;44.960;-0.698;2023-03-26T00:51:11;101102.16;;;12.93;100.00
46718;BME280;32448;44.960;-0.698;2023-03-26T00:53:42;101124.91;;;12.94;100.00
46718;BME280;32448;44.960;-0.698;2023-03-26T00:56:09;101128.41;;;12.95;100.00
46718;BME280;32448;44.960;-0.698;2023-03-26T00:58:36;101127.53;;;12.94;100.00
46718;BME280;32448;44.960;-0.698;2023-03-26T01:01:05;101139.72;;;12.89;100.00
46718;BME280;32448;44.960;-0.698;2023-03-26T01:03:33;101136.16;;;12.84;100.00
46718;BME280;32448;44.960;-0.698;2023-03-26T01:06:02;101126.50;;;12.82;100.00
46718;BME280;32448;44.960;-0.698;2023-03-26T01:11:17;101135.09;;;12.70;100.00
46718;BME280;32448;44.960;-0.698;2023-03-26T01:13:46;101149.81;;;12.62;100.00
46718;BME280;32448;44.960;-0.698;2023-03-26T01:16:19;101151.56;;;12.61;100.00
46718;BME280;32448;44.960;-0.698;2023-03-26T01:18:48;101143.78;;;12.66;100.00
46718;BME280;32448;44.960;-0.698;2023-03-26T01:21:21;101135.97;;;12.72;100.00
46718;BME280;32448;44.960;-0.698;2023-03-26T01:23:56;101125.31;;;12.58;100.00
46718;BME280;32448;44.960;-0.698;2023-03-26T01:26:33;101120.06;;;12.60;100.00
46718;BME280;32448;44.960;-0.698;2023-03-26T01:29:04;101136.56;;;12.51;100.00
46718;BME280;32448;44.960;-0.698;2023-03-26T01:31:46;101131.25;;;12.47;100.00
46718;BME280;32448;44.960;-0.698;2023-03-26T01:36:55;101136.47;;;12.45;100.00
46718;BME280;32448;44.960;-0.698;2023-03-26T01:39:34;101146.88;;;12.40;100.00
46718;BME280;32448;44.960;-0.698;2023-03-26T01:42:11;101145.13;;;12.41;100.00
46718;BME280;32448;44.960;-0.698;2023-03-26T01:47:08;101158.22;;;12.39;100.00
46718;BME280;32448;44.960;-0.698;2023-03-26T01:49:36;101144.16;;;12.33;100.00
46718;BME280;32448;44.960;-0.698;2023-03-26T01:52:18;101149.41;;;12.34;100.00
46718;BME280;32448;44.960;-0.698;2023-03-26T01:54:46;101152.03;;;12.34;100.00
46718;BME280;32448;44.960;-0.698;2023-03-26T01:57:19;101162.59;;;12.39;100.00
46718;BME280;32448;44.960;-0.698;2023-03-26T02:05:02;101158.13;;;12.33;100.00
46718;BME280;32448;44.960;-0.698;2023-03-26T02:07:37;101152.00;;;12.33;100.00
46718;BME280;32448;44.960;-0.698;2023-03-26T02:10:10;101144.09;;;12.30;100.00
46718;BME280;32448;44.960;-0.698;2023-03-26T02:12:40;101133.53;;;12.24;100.00
46718;BME280;32448;44.960;-0.698;2023-03-26T02:15:08;101119.56;;;12.26;100.00
46718;BME280;32448;44.960;-0.698;2023-03-26T02:17:35;101109.06;;;12.23;100.00
46718;BME280;32448;44.960;-0.698;2023-03-26T02:20:07;101125.66;;;12.24;100.00
46718;BME280;32448;44.960;-0.698;2023-03-26T02:22:36;101115.97;;;12.20;100.00
46718;BME280;32448;44.960;-0.698;2023-03-26T02:25:09;101115.09;;;12.19;100.00
46718;BME280;32448;44.960;-0.698;2023-03-26T02:27:36;101110.72;;;12.18;100.00
46718;BME280;32448;44.960;-0.698;2023-03-26T02:30:05;101111.69;;;12.23;100.00
46718;BME280;32448;44.960;-0.698;2023-03-26T02:32:33;101122.97;;;12.21;100.00
46718;BME280;32448;44.960;-0.698;2023-03-26T02:35:00;101129.13;;;12.21;100.00
46718;BME280;32448;44.960;-0.698;2023-03-26T02:37:27;101118.63;;;12.21;100.00
46718;BME280;32448;44.960;-0.698;2023-03-26T02:40:04;101136.88;;;12.17;100.00
46718;BME280;32448;44.960;-0.698;2023-03-26T02:42:39;101124.66;;;12.17;100.00
46718;BME280;32448;44.960;-0.698;2023-03-26T02:45:07;101121.28;;;12.23;100.00
46718;BME280;32448;44.960;-0.698;2023-03-26T02:48:09;101121.19;;;12.18;100.00
46718;BME280;32448;44.960;-0.698;2023-03-26T02:50:39;101087.13;;;12.18;100.00
46718;BME280;32448;44.960;-0.698;2023-03-26T02:53:21;101070.38;;;12.09;100.00
46718;BME280;32448;44.960;-0.698;2023-03-26T02:55:57;101090.41;;;12.03;100.00
46718;BME280;32448;44.960;-0.698;2023-03-26T02:58:28;101119.22;;;12.05;100.00
46718;BME280;32448;44.960;-0.698;2023-03-26T03:00:56;101117.47;;;12.06;100.00
46718;BME280;32448;44.960;-0.698;2023-03-26T03:03:32;101134.13;;;12.08;100.00
46718;BME280;32448;44.960;-0.698;2023-03-26T03:06:26;101121.09;;;12.12;100.00
46718;BME280;32448;44.960;-0.698;2023-03-26T03:08:57;101106.13;;;12.05;100.00
46718;BME280;32448;44.960;-0.698;2023-03-26T03:11:33;101098.34;;;12.10;100.00
46718;BME280;32448;44.960;-0.698;2023-03-26T03:14:01;101078.22;;;12.07;100.00
46718;BME280;32448;44.960;-0.698;2023-03-26T03:16:30;101083.38;;;12.01;100.00
46718;BME280;32448;44.960;-0.698;2023-03-26T03:19:02;101094.63;;;11.95;100.00
46718;BME280;32448;44.960;-0.698;2023-03-26T03:21:36;101107.69;;;11.94;100.00
46718;BME280;32448;44.960;-0.698;2023-03-26T03:24:04;101099.84;;;11.95;100.00
46718;BME280;32448;44.960;-0.698;2023-03-26T03:26:34;101084.13;;;11.92;100.00
46718;BME280;32448;44.960;-0.698;2023-03-26T03:29:19;101084.09;;;11.91;100.00
46718;BME280;32448;44.960;-0.698;2023-03-26T03:31:47;101084.97;;;11.91;100.00
46718;BME280;32448;44.960;-0.698;2023-03-26T03:34:29;101101.69;;;11.99;100.00
46718;BME280;32448;44.960;-0.698;2023-03-26T03:36:59;101112.16;;;11.99;100.00
46718;BME280;32448;44.960;-0.698;2023-03-26T03:39:33;101115.63;;;11.98;100.00
46718;BME280;32448;44.960;-0.698;2023-03-26T03:42:00;101121.91;;;12.08;100.00
46718;BME280;32448;44.960;-0.698;2023-03-26T03:44:28;101118.34;;;12.04;100.00
46718;BME280;32448;44.960;-0.698;2023-03-26T03:46:55;101097.28;;;11.98;100.00
46718;BME280;32448;44.960;-0.698;2023-03-26T03:49:23;101105.22;;;12.01;100.00
46718;BME280;32448;44.960;-0.698;2023-03-26T03:51:50;101107.75;;;11.97;100.00
46718;BME280;32448;44.960;-0.698;2023-03-26T03:54:28;101115.44;;;11.86;100.00
46718;BME280;32448;44.960;-0.698;2023-03-26T03:57:19;101099.66;;;11.83;100.00
46718;BME280;32448;44.960;-0.698;2023-03-26T03:59:55;101108.34;;;11.82;100.00
46718;BME280;32448;44.960;-0.698;2023-03-26T04:02:26;101104.84;;;11.80;100.00
46718;BME280;32448;44.960;-0.698;2023-03-26T04:05:03;101104.84;;;11.80;100.00
46718;BME280;32448;44.960;-0.698;2023-03-26T04:07:33;101102.19;;;11.77;100.00
46718;BME280;32448;44.960;-0.698;2023-03-26T04:10:03;101107.31;;;11.74;100.00
46718;BME280;32448;44.960;-0.698;2023-03-26T04:12:51;101097.56;;;11.65;100.00
46718;BME280;32448;44.960;-0.698;2023-03-26T04:15:25;101120.19;;;11.62;100.00
46718;BME280;32448;44.960;-0.698;2023-03-26T04:17:53;101114.03;;;11.58;100.00
46718;BME280;32448;44.960;-0.698;2023-03-26T04:20:20;101110.34;;;11.49;100.00
46718;BME280;32448;44.960;-0.698;2023-03-26T04:22:49;101109.38;;;11.44;100.00
46718;BME280;32448;44.960;-0.698;2023-03-26T04:25:18;101111.09;;;11.42;100.00
46718;BME280;32448;44.960;-0.698;2023-03-26T04:27:49;101113.59;;;11.36;100.00
46718;BME280;32448;44.960;-0.698;2023-03-26T04:30:34;101104.72;;;11.29;100.00
46718;BME280;32448;44.960;-0.698;2023-03-26T04:33:13;101108.88;;;11.18;100.00
46718;BME280;32448;44.960;-0.698;2023-03-26T04:35:44;101114.03;;;11.13;100.00
46718;BME280;32448;44.960;-0.698;2023-03-26T04:38:13;101109.69;;;11.14;100.00
46718;BME280;32448;44.960;-0.698;2023-03-26T04:40:45;101111.25;;;11.04;100.00
46718;BME280;32448;44.960;-0.698;2023-03-26T04:43:34;101118.28;;;11.08;100.00
46718;BME280;32448;44.960;-0.698;2023-03-26T04:46:03;101107.63;;;10.99;100.00
46718;BME280;32448;44.960;-0.698;2023-03-26T04:48:37;101116.13;;;10.89;100.00
46718;BME280;32448;44.960;-0.698;2023-03-26T04:51:07;101109.25;;;10.92;100.00
46718;BME280;32448;44.960;-0.698;2023-03-26T04:53:36;101107.34;;;10.85;100.00
46718;BME280;32448;44.960;-0.698;2023-03-26T04:59:04;101099.41;;;10.81;100.00
46718;BME280;32448;44.960;-0.698;2023-03-26T05:01:36;101097.47;;;10.71;100.00
46718;BME280;32448;44.960;-0.698;2023-03-26T05:04:04;101110.34;;;10.63;100.00
46718;BME280;32448;44.960;-0.698;2023-03-26T05:06:32;101109.44;;;10.63;100.00
46718;BME280;32448;44.960;-0.698;2023-03-26T05:09:06;101118.94;;;10.57;100.00
46718;BME280;32448;44.960;-0.698;2023-03-26T05:12:03;101111.09;;;10.57;100.00
46718;BME280;32448;44.960;-0.698;2023-03-26T05:14:41;101117.94;;;10.52;100.00
46718;BME280;32448;44.960;-0.698;2023-03-26T05:17:14;101115.09;;;10.42;100.00
46718;BME280;32448;44.960;-0.698;2023-03-26T05:19:45;101116.78;;;10.38;100.00
46718;BME280;32448;44.960;-0.698;2023-03-26T05:22:14;101117.53;;;10.34;100.00
46718;BME280;32448;44.960;-0.698;2023-03-26T05:25:18;101111.31;;;10.29;100.00
46718;BME280;32448;44.960;-0.698;2023-03-26T05:27:46;101115.72;;;10.32;100.00
46718;BME280;32448;44.960;-0.698;2023-03-26T05:30:15;101115.63;;;10.27;100.00
46718;BME280;32448;44.960;-0.698;2023-03-26T05:32:45;101126.94;;;10.28;100.00
46718;BME280;32448;44.960;-0.698;2023-03-26T05:35:17;101118.34;;;10.32;100.00
46718;BME280;32448;44.960;-0.698;2023-03-26T05:37:58;101110.34;;;10.24;100.00
46718;BME280;32448;44.960;-0.698;2023-03-26T05:40:26;101111.25;;;10.26;100.00
46718;BME280;32448;44.960;-0.698;2023-03-26T05:42:56;101112.03;;;10.22;100.00
46718;BME280;32448;44.960;-0.698;2023-03-26T05:45:43;101100.66;;;10.20;100.00
46718;BME280;32448;44.960;-0.698;2023-03-26T05:48:37;101102.69;;;10.33;100.00
46718;BME280;32448;44.960;-0.698;2023-03-26T05:51:06;101097.47;;;10.33;100.00
46718;BME280;32448;44.960;-0.698;2023-03-26T05:53:35;101103.53;;;10.32;100.00
46718;BME280;32448;44.960;-0.698;2023-03-26T05:56:25;101102.69;;;10.33;100.00
46718;BME280;32448;44.960;-0.698;2023-03-26T05:59:11;101091.25;;;10.28;100.00
46718;BME280;32448;44.960;-0.698;2023-03-26T06:01:43;101095.59;;;10.28;100.00
46718;BME280;32448;44.960;-0.698;2023-03-26T06:04:37;101099.34;;;10.39;100.00
46718;BME280;32448;44.960;-0.698;2023-03-26T06:07:40;101095.81;;;10.37;100.00
46718;BME280;32448;44.960;-0.698;2023-03-26T06:10:12;101090.44;;;10.31;100.00
46718;BME280;32448;44.960;-0.698;2023-03-26T06:12:50;101094.88;;;10.33;100.00
46718;BME280;32448;44.960;-0.698;2023-03-26T06:15:21;101090.53;;;10.34;100.00
46718;BME280;32448;44.960;-0.698;2023-03-26T06:17:58;101090.47;;;10.32;100.00
46718;BME280;32448;44.960;-0.698;2023-03-26T06:20:53;101088.03;;;10.40;100.00
46718;BME280;32448;44.960;-0.698;2023-03-26T06:23:35;101093.38;;;10.44;100.00
46718;BME280;32448;44.960;-0.698;2023-03-26T06:26:10;101093.38;;;10.44;100.00
46718;BME280;32448;44.960;-0.698;2023-03-26T06:28:48;101097.84;;;10.48;100.00
46718;BME280;32448;44.960;-0.698;2023-03-26T06:31:47;101115.44;;;10.57;100.00
46718;BME280;32448;44.960;-0.698;2023-03-26T06:34:24;101104.41;;;10.72;100.00
46718;BME280;32448;44.960;-0.698;2023-03-26T06:36:52;101114.03;;;10.73;100.00
46718;BME280;32448;44.960;-0.698;2023-03-26T06:39:21;101119.38;;;10.77;100.00
46718;BME280;32448;44.960;-0.698;2023-03-26T06:42:08;101123.00;;;10.82;100.00
46718;BME280;32448;44.960;-0.698;2023-03-26T06:44:54;101134.34;;;10.84;100.00
46718;BME280;32448;44.960;-0.698;2023-03-26T06:47:33;101143.91;;;10.84;100.00
46718;BME280;32448;44.960;-0.698;2023-03-26T06:50:26;101147.28;;;10.78;100.00
46718;BME280;32448;44.960;-0.698;2023-03-26T06:52:54;101152.56;;;10.80;100.00
46718;BME280;32448;44.960;-0.698;2023-03-26T06:55:42;101167.97;;;10.68;100.00
46718;BME280;32448;44.960;-0.698;2023-03-26T06:58:41;101152.94;;;10.57;100.00
46718;BME280;32448;44.960;-0.698;2023-03-26T07:01:17;101167.72;;;10.57;100.00
46718;BME280;32448;44.960;-0.698;2023-03-26T07:04:03;101167.44;;;10.45;100.00
46718;BME280;32448;44.960;-0.698;2023-03-26T07:06:49;101144.84;;;10.47;100.00
46718;BME280;32448;44.960;-0.698;2023-03-26T07:09:34;101159.72;;;10.51;100.00
46718;BME280;32448;44.960;-0.698;2023-03-26T07:12:25;101163.38;;;10.57;100.00
46718;BME280;32448;44.960;-0.698;2023-03-26T07:15:18;101163.38;;;10.57;100.00
46718;BME280;32448;44.960;-0.698;2023-03-26T07:18:07;101156.47;;;10.60;100.00
46718;BME280;32448;44.960;-0.698;2023-03-26T07:20:37;101171.97;;;10.53;100.00
46718;BME280;32448;44.960;-0.698;2023-03-26T07:23:09;101154.63;;;10.55;100.00
46718;BME280;32448;44.960;-0.698;2023-03-26T07:25:51;101163.81;;;10.38;100.00
46718;BME280;32448;44.960;-0.698;2023-03-26T07:28:46;101173.00;;;10.23;100.00
46718;BME280;32448;44.960;-0.698;2023-03-26T07:34:35;101175.16;;;10.40;100.00
46718;BME280;32448;44.960;-0.698;2023-03-26T07:37:28;101172.53;;;10.40;100.00
46718;BME280;32448;44.960;-0.698;2023-03-26T07:40:21;101171.84;;;10.47;100.00
46718;BME280;32448;44.960;-0.698;2023-03-26T07:46:00;101160.69;;;10.92;100.00
46718;BME280;32448;44.960;-0.698;2023-03-26T07:48:45;101161.59;;;10.95;100.00
46718;BME280;32448;44.960;-0.698;2023-03-26T07:51:39;101160.78;;;10.98;100.00
46718;BME280;32448;44.960;-0.698;2023-03-26T07:54:22;101169.63;;;11.05;100.00
46718;BME280;32448;44.960;-0.698;2023-03-26T07:57:20;101170.63;;;11.10;100.00
46718;BME280;32448;44.960;-0.698;2023-03-26T08:00:18;101168.94;;;11.12;100.00
46718;BME280;32448;44.960;-0.698;2023-03-26T08:05:59;101165.69;;;11.23;100.00
46718;BME280;32448;44.960;-0.698;2023-03-26T08:11:37;101163.28;;;11.34;100.00
46718;BME280;32448;44.960;-0.698;2023-03-26T08:19:29;101193.03;;;11.80;100.00
46718;BME280;32448;44.960;-0.698;2023-03-26T08:22:21;101190.44;;;11.83;100.00
46718;BME280;32448;44.960;-0.698;2023-03-26T08:25:09;101179.09;;;11.84;100.00
46718;BME280;32448;44.960;-0.698;2023-03-26T08:27:54;101182.53;;;11.80;100.00
46718;BME280;32448;44.960;-0.698;2023-03-26T08:30:25;101185.00;;;11.74;100.00
46718;BME280;32448;44.960;-0.698;2023-03-26T08:32:54;101197.41;;;11.82;100.00
46718;BME280;32448;44.960;-0.698;2023-03-26T08:35:24;101199.16;;;11.83;100.00
46718;BME280;32448;44.960;-0.698;2023-03-26T08:37:53;101200.06;;;11.84;100.00
46718;BME280;32448;44.960;-0.698;2023-03-26T08:40:37;101199.13;;;11.80;100.00
46718;BME280;32448;44.960;-0.698;2023-03-26T08:46:01;101211.38;;;11.83;100.00
46718;BME280;32448;44.960;-0.698;2023-03-26T08:51:27;101227.91;;;11.79;100.00
46718;BME280;32448;44.960;-0.698;2023-03-26T08:56:50;101226.97;;;11.75;100.00
46718;BME280;32448;44.960;-0.698;2023-03-26T09:05:02;101228.94;;;11.87;100.00
46718;BME280;32448;44.960;-0.698;2023-03-26T09:13:15;101233.00;;;11.74;100.00
46718;BME280;32448;44.960;-0.698;2023-03-26T09:21:19;101227.25;;;11.90;100.00
46718;BME280;32448;44.960;-0.698;2023-03-26T09:24:05;101214.00;;;11.81;100.00
46718;BME280;32448;44.960;-0.698;2023-03-26T10:02:10;101245.41;;;11.80;100.00
46718;BME280;32448;44.960;-0.698;2023-03-26T10:04:55;101239.41;;;11.87;100.00
46718;BME280;32448;44.960;-0.698;2023-03-26T10:10:00;101237.06;;;12.00;100.00
46718;BME280;32448;44.960;-0.698;2023-03-26T10:12:38;101226.34;;;11.88;100.00
46718;BME280;32448;44.960;-0.698;2023-03-26T10:25:35;101213.94;;;12.81;100.00
46718;BME280;32448;44.960;-0.698;2023-03-26T10:28:10;101188.81;;;12.98;100.00
46718;BME280;32448;44.960;-0.698;2023-03-26T10:30:58;101186.34;;;13.08;100.00
46718;BME280;32448;44.960;-0.698;2023-03-26T10:36:20;101171.09;;;12.80;100.00
46718;BME280;32448;44.960;-0.698;2023-03-26T10:42:05;101188.94;;;12.47;100.00
46718;BME280;32448;44.960;-0.698;2023-03-26T10:55:25;101205.06;;;11.73;100.00
46718;BME280;32448;44.960;-0.698;2023-03-26T10:57:56;101204.41;;;11.83;100.00
46718;BME280;32448;44.960;-0.698;2023-03-26T11:00:28;101200.53;;;12.10;100.00
46718;BME280;32448;44.960;-0.698;2023-03-26T11:08:09;101182.84;;;13.09;100.00
46718;BME280;32448;44.960;-0.698;2023-03-26T11:10:43;101173.28;;;13.13;100.00
46718;BME280;32448;44.960;-0.698;2023-03-26T11:13:17;101169.22;;;13.38;100.00
46718;BME280;32448;44.960;-0.698;2023-03-26T11:15:55;101160.47;;;13.34;100.00
46718;BME280;32448;44.960;-0.698;2023-03-26T11:21:11;101138.72;;;13.47;100.00
46718;BME280;32448;44.960;-0.698;2023-03-26T11:24:30;101130.94;;;13.55;100.00
46718;BME280;32448;44.960;-0.698;2023-03-26T11:34:34;101104.50;;;13.40;100.00
46718;BME280;32448;44.960;-0.698;2023-03-26T11:37:05;101086.06;;;13.37;100.00
46718;BME280;32448;44.960;-0.698;2023-03-26T11:39:39;101074.84;;;13.47;100.00
46718;BME280;32448;44.960;-0.698;2023-03-26T11:42:09;101097.78;;;13.68;100.00
46718;BME280;32448;44.960;-0.698;2023-03-26T11:44:54;101090.03;;;13.84;100.00
46718;BME280;32448;44.960;-0.698;2023-03-26T11:48:00;101082.22;;;13.91;100.00
46718;BME280;32448;44.960;-0.698;2023-03-26T11:50:21;101077.69;;;13.73;100.00
46718;BME280;32448;44.960;-0.698;2023-03-26T11:53:01;101076.97;;;13.94;100.00
46718;BME280;32448;44.960;-0.698;2023-03-26T11:55:29;101079.47;;;13.77;100.00
46718;BME280;32448;44.960;-0.698;2023-03-26T11:57:57;101097.69;;;13.57;100.00
46718;BME280;32448;44.960;-0.698;2023-03-26T12:00:26;101110.47;;;13.27;100.00
46718;BME280;32448;44.960;-0.698;2023-03-26T12:02:55;101090.28;;;13.21;100.00
46718;BME280;32448;44.960;-0.698;2023-03-26T12:05:28;101086.06;;;13.34;100.00
46718;BME280;32448;44.960;-0.698;2023-03-26T12:08:01;101092.41;;;13.56;100.00
46718;BME280;32448;44.960;-0.698;2023-03-26T12:10:32;101085.28;;;13.44;100.00
46718;BME280;32448;44.960;-0.698;2023-03-26T12:16:00;101078.16;;;13.32;100.00
46718;BME280;32448;44.960;-0.698;2023-03-26T12:18:30;101070.16;;;13.20;100.00
46718;BME280;32448;44.960;-0.698;2023-03-26T12:21:05;101059.16;;;12.82;100.00
46718;BME280;32448;44.960;-0.698;2023-03-26T12:23:41;101082.94;;;12.96;100.00
46718;BME280;32448;44.960;-0.698;2023-03-26T12:26:16;101074.84;;;12.76;100.00
46718;BME280;32448;44.960;-0.698;2023-03-26T12:28:46;101072.09;;;12.67;100.00
46718;BME280;32448;44.960;-0.698;2023-03-26T12:31:18;101063.50;;;12.77;100.00
46718;BME280;32448;44.960;-0.698;2023-03-26T12:36:54;101046.91;;;12.80;100.00
46718;BME280;32448;44.960;-0.698;2023-03-26T12:39:25;101073.78;;;12.63;100.00
46718;BME280;32448;44.960;-0.698;2023-03-26T12:42:25;101067.72;;;12.66;100.00
46718;BME280;32448;44.960;-0.698;2023-03-26T12:45:19;101051.81;;;12.54;100.00
46718;BME280;32448;44.960;-0.698;2023-03-26T12:47:48;101060.53;;;12.53;100.00
46718;BME280;32448;44.960;-0.698;2023-03-26T12:53:15;101033.81;;;12.80;100.00
46718;BME280;32448;44.960;-0.698;2023-03-26T13:01:27;101024.06;;;12.71;100.00
46718;BME280;32448;44.960;-0.698;2023-03-26T13:06:37;101024.97;;;12.74;100.00
46718;BME280;32448;44.960;-0.698;2023-03-26T13:12:11;100994.84;;;13.16;100.00
46718;BME280;32448;44.960;-0.698;2023-03-26T13:17:19;100980.72;;;13.02;100.00
46718;BME280;32448;44.960;-0.698;2023-03-26T13:22:44;100994.59;;;12.93;100.00
46718;BME280;32448;44.960;-0.698;2023-03-26T13:25:27;100980.47;;;12.81;100.00
46718;BME280;32448;44.960;-0.698;2023-03-26T13:38:04;100965.50;;;12.72;100.00
46718;BME280;32448;44.960;-0.698;2023-03-26T13:40:44;100952.53;;;12.84;100.00
46718;BME280;32448;44.960;-0.698;2023-03-26T13:46:06;100936.88;;;12.95;100.00
46718;BME280;32448;44.960;-0.698;2023-03-26T13:48:46;100948.09;;;12.82;100.00
46718;BME280;32448;44.960;-0.698;2023-03-26T13:54:22;100921.38;;;13.16;100.00
46718;BME280;32448;44.960;-0.698;2023-03-26T13:56:55;100927.44;;;13.10;100.00
46718;BME280;32448;44.960;-0.698;2023-03-26T13:59:36;100927.31;;;13.00;100.00
46718;BME280;32448;44.960;-0.698;2023-03-26T14:05:43;100928.88;;;12.83;100.00
46718;BME280;32448;44.960;-0.698;2023-03-26T14:08:25;100931.31;;;12.64;100.00
46718;BME280;32448;44.960;-0.698;2023-03-26T14:11:18;100924.13;;;12.48;100.00
46718;BME280;32448;44.960;-0.698;2023-03-26T14:13:53;100932.06;;;12.53;100.00
46718;BME280;32448;44.960;-0.698;2023-03-26T14:16:36;100944.13;;;12.37;100.00
46718;BME280;32448;44.960;-0.698;2023-03-26T14:19:39;100930.88;;;12.28;100.00
46718;BME280;32448;44.960;-0.698;2023-03-26T14:28:01;100921.31;;;12.30;100.00
46718;BME280;32448;44.960;-0.698;2023-03-26T14:47:24;100940.69;;;11.78;100.00
46718;BME280;32448;44.960;-0.698;2023-03-26T14:55:31;100942.59;;;11.89;100.00
46718;BME280;32448;44.960;-0.698;2023-03-26T14:58:17;100938.34;;;11.97;100.00
46718;BME280;32448;44.960;-0.698;2023-03-26T15:17:22;100963.75;;;12.04;100.00
46718;BME280;32448;44.960;-0.698;2023-03-26T15:26:00;100965.78;;;12.24;100.00
46718;BME280;32448;44.960;-0.698;2023-03-26T15:30:59;100963.31;;;12.34;100.00
46718;BME280;32448;44.960;-0.698;2023-03-26T15:33:43;100973.69;;;12.28;100.00
46718;BME280;32448;44.960;-0.698;2023-03-26T15:36:39;100970.91;;;12.15;100.00
46718;BME280;32448;44.960;-0.698;2023-03-26T15:39:44;100973.56;;;12.18;100.00
46718;BME280;32448;44.960;-0.698;2023-03-26T15:42:32;100983.13;;;12.16;100.00
46718;BME280;32448;44.960;-0.698;2023-03-26T15:45:14;100986.59;;;12.12;100.00
46718;BME280;32448;44.960;-0.698;2023-03-26T15:57:48;100997.16;;;12.19;100.00
46718;BME280;32448;44.960;-0.698;2023-03-26T16:00:23;100985.72;;;12.11;100.00
46718;BME280;32448;44.960;-0.698;2023-03-26T16:03:38;100985.72;;;12.13;100.00
46718;BME280;32448;44.960;-0.698;2023-03-26T16:11:05;100981.53;;;12.25;100.00
46718;BME280;32448;44.960;-0.698;2023-03-26T16:18:43;100972.81;;;12.28;100.00
46718;BME280;32448;44.960;-0.698;2023-03-26T16:29:17;101006.56;;;12.05;100.00
46718;BME280;32448;44.960;-0.698;2023-03-26T16:34:27;101016.16;;;12.03;100.00
46718;BME280;32448;44.960;-0.698;2023-03-26T16:36:57;101022.34;;;12.08;100.00
46718;BME280;32448;44.960;-0.698;2023-03-26T16:39:45;101028.50;;;12.10;100.00
46718;BME280;32448;44.960;-0.698;2023-03-26T16:42:25;101034.53;;;12.06;100.00
46718;BME280;32448;44.960;-0.698;2023-03-26T16:45:10;101039.81;;;12.09;100.00
46718;BME280;32448;44.960;-0.698;2023-03-26T16:53:20;101039.59;;;11.95;100.00
46718;BME280;32448;44.960;-0.698;2023-03-26T16:55:53;101049.25;;;11.98;100.00
46718;BME280;32448;44.960;-0.698;2023-03-26T16:58:29;101049.19;;;11.95;100.00
46718;BME280;32448;44.960;-0.698;2023-03-26T17:03:37;101041.34;;;11.95;100.00
46718;BME280;32448;44.960;-0.698;2023-03-26T17:08:46;101045.69;;;11.93;100.00
46718;BME280;32448;44.960;-0.698;2023-03-26T17:14:08;101060.56;;;11.95;100.00
46718;BME280;32448;44.960;-0.698;2023-03-26T17:30:37;101123.41;;;11.46;100.00
46718;BME280;32448;44.960;-0.698;2023-03-26T17:35:50;101150.38;;;11.43;100.00
46718;BME280;32448;44.960;-0.698;2023-03-26T17:41:11;101168.81;;;11.49;100.00
46718;BME280;32448;44.960;-0.698;2023-03-26T17:46:18;101174.69;;;11.36;100.00
46718;BME280;32448;44.960;-0.698;2023-03-26T17:48:49;101167.53;;;11.29;100.00
46718;BME280;32448;44.960;-0.698;2023-03-26T17:51:30;101174.41;;;11.22;100.00
46718;BME280;32448;44.960;-0.698;2023-03-26T17:59:55;101193.66;;;11.27;100.00
46718;BME280;32448;44.960;-0.698;2023-03-26T18:02:35;101203.38;;;11.31;100.00
46718;BME280;32448;44.960;-0.698;2023-03-26T18:05:06;101215.44;;;11.25;100.00
46718;BME280;32448;44.960;-0.698;2023-03-26T18:15:25;101241.63;;;11.25;100.00
46718;BME280;32448;44.960;-0.698;2023-03-26T18:17:58;101250.34;;;11.25;100.00
46718;BME280;32448;44.960;-0.698;2023-03-26T18:20:27;101252.81;;;11.19;100.00
46718;BME280;32448;44.960;-0.698;2023-03-26T18:22:54;101265.97;;;11.22;100.00
46718;BME280;32448;44.960;-0.698;2023-03-26T18:25:26;101270.22;;;11.17;100.00
46718;BME280;32448;44.960;-0.698;2023-03-26T18:27:54;101282.31;;;11.12;100.00
46718;BME280;32448;44.960;-0.698;2023-03-26T18:30:22;101285.75;;;11.10;100.00
46718;BME280;32448;44.960;-0.698;2023-03-26T18:35:26;101296.22;;;11.10;100.00